Time;durP1;ratioP1;P1;durP2;ratioP2;P2;SDS_P1;SDS_P2;PMS_P1;PMS_P2;Temp;Humidity;BMP_temperature;BMP_pressure;BME280_temperature;BME280_humidity;BME280_pressure;Samples;Min_cycle;Max_cycle;Signal;HPM_P1;HPM_P2
2021/06/26 00:02:12;;;;;;;4.95;4.28;;;;;;;;;;5090313;28;20028;-48
2021/06/26 00:04:39;;;;;;;4.60;3.75;;;;;;;;;;5091575;28;20024;-48
2021/06/26 00:07:05;;;;;;;7.40;4.25;;;;;;;;;;5075354;28;20025;-49
2021/06/26 00:09:31;;;;;;;5.65;4.18;;;;;;;;;;5092155;28;20024;-48
2021/06/26 00:11:57;;;;;;;4.50;3.67;;;;;;;;;;5087250;28;20511;-48
2021/06/26 00:14:23;;;;;;;4.53;3.88;;;;;;;;;;5091805;28;20036;-49
2021/06/26 00:16:49;;;;;;;5.57;3.88;;;;;;;;;;5090553;28;20115;-50
2021/06/26 00:19:15;;;;;;;6.75;3.95;;;;;;;;;;5091898;28;20020;-48
2021/06/26 00:21:41;;;;;;;5.38;4.25;;;;;;;;;;5091658;28;20026;-48
2021/06/26 00:24:07;;;;;;;5.13;3.88;;;;;;;;;;5091994;28;20020;-50
2021/06/26 00:26:33;;;;;;;5.03;3.92;;;;;;;;;;5090063;28;20029;-49
2021/06/26 00:28:59;;;;;;;4.30;3.90;;;;;;;;;;5082387;28;20064;-52
2021/06/26 00:31:25;;;;;;;4.82;4.00;;;;;;;;;;5083016;28;20044;-49
2021/06/26 00:33:51;;;;;;;5.55;3.90;;;;;;;;;;5090508;28;20024;-48
2021/06/26 00:36:17;;;;;;;5.22;4.38;;;;;;;;;;5086348;28;20028;-51
2021/06/26 00:38:43;;;;;;;6.95;4.07;;;;;;;;;;5091807;28;20051;-50
2021/06/26 00:41:10;;;;;;;6.53;4.65;;;;;;;;;;5080070;28;20581;-49
2021/06/26 00:43:36;;;;;;;7.00;4.50;;;;;;;;;;5091127;28;20549;-48
2021/06/26 00:46:02;;;;;;;6.38;4.30;;;;;;;;;;5089312;28;20023;-49
2021/06/26 00:48:28;;;;;;;5.60;4.20;;;;;;;;;;5084908;28;20037;-50
2021/06/26 00:50:54;;;;;;;5.55;4.60;;;;;;;;;;5074757;28;20093;-49
2021/06/26 00:53:23;;;;;;;5.65;4.47;;;;;;;;;;5091241;28;20032;-49
2021/06/26 00:55:52;;;;;;;5.28;4.50;;;;;;;;;;5091015;28;20064;-48
2021/06/26 00:58:19;;;;;;;4.90;4.30;;;;;;;;;;5083276;28;20032;-48
2021/06/26 01:00:45;;;;;;;5.72;4.28;;;;;;;;;;5080680;28;20033;-48
2021/06/26 01:03:12;;;;;;;7.97;4.90;;;;;;;;;;5091536;28;20689;-48
2021/06/26 01:05:38;;;;;;;4.88;4.25;;;;;;;;;;5080865;28;20103;-47
2021/06/26 01:08:04;;;;;;;6.43;4.75;;;;;;;;;;5091200;28;20028;-49
2021/06/26 01:10:30;;;;;;;5.75;4.30;;;;;;;;;;5091898;28;20028;-48
2021/06/26 01:12:57;;;;;;;4.80;4.25;;;;;;;;;;5071974;28;20417;-48
2021/06/26 01:15:23;;;;;;;6.05;4.75;;;;;;;;;;5090385;28;20032;-48
2021/06/26 01:17:49;;;;;;;5.65;4.20;;;;;;;;;;5076361;28;20158;-48
2021/06/26 01:20:16;;;;;;;6.03;4.53;;;;;;;;;;5085152;28;20424;-49
2021/06/26 01:22:43;;;;;;;7.28;5.03;;;;;;;;;;5083743;28;20035;-48
2021/06/26 01:25:13;;;;;;;6.63;4.80;;;;;;;;;;5088134;28;20433;-48
2021/06/26 01:27:39;;;;;;;6.32;4.80;;;;;;;;;;5072921;28;20024;-48
2021/06/26 01:30:06;;;;;;;7.50;4.93;;;;;;;;;;5093603;28;20483;-48
2021/06/26 01:32:32;;;;;;;7.78;6.07;;;;;;;;;;5091955;28;20032;-48
2021/06/26 01:34:58;;;;;;;8.40;5.75;;;;;;;;;;5093448;28;20043;-49
2021/06/26 01:37:24;;;;;;;8.07;5.60;;;;;;;;;;5087959;28;20028;-48
2021/06/26 01:39:50;;;;;;;6.57;4.90;;;;;;;;;;5095144;28;20012;-48
2021/06/26 01:42:16;;;;;;;7.40;5.40;;;;;;;;;;5094426;28;20034;-48
2021/06/26 01:44:42;;;;;;;5.75;4.65;;;;;;;;;;5094914;28;20051;-48
2021/06/26 01:47:08;;;;;;;7.13;5.03;;;;;;;;;;5088321;28;20036;-48
2021/06/26 01:49:34;;;;;;;9.40;5.00;;;;;;;;;;5094893;28;20169;-48
2021/06/26 01:52:00;;;;;;;5.72;4.95;;;;;;;;;;5092675;28;20028;-47
2021/06/26 01:54:26;;;;;;;7.03;5.50;;;;;;;;;;5082397;28;20346;-48
2021/06/26 01:56:52;;;;;;;6.07;4.90;;;;;;;;;;5092467;28;20081;-49
2021/06/26 01:59:18;;;;;;;7.68;5.97;;;;;;;;;;5090686;28;20040;-48
2021/06/26 02:01:44;;;;;;;6.75;5.47;;;;;;;;;;5078612;28;20033;-49
2021/06/26 02:04:10;;;;;;;8.10;5.43;;;;;;;;;;5093987;28;20024;-49
2021/06/26 02:06:36;;;;;;;8.98;5.60;;;;;;;;;;5085034;28;20174;-50
2021/06/26 02:09:02;;;;;;;6.72;5.45;;;;;;;;;;5094578;28;20693;-48
2021/06/26 02:11:28;;;;;;;7.70;5.43;;;;;;;;;;5094014;28;20376;-48
2021/06/26 02:13:54;;;;;;;13.15;6.55;;;;;;;;;;5094254;28;20036;-48
2021/06/26 02:16:20;;;;;;;7.57;5.43;;;;;;;;;;5092013;28;20471;-48
2021/06/26 02:18:46;;;;;;;7.13;6.00;;;;;;;;;;5090361;28;20103;-48
2021/06/26 02:21:12;;;;;;;6.25;5.20;;;;;;;;;;5094371;28;20581;-47
2021/06/26 02:23:39;;;;;;;6.25;5.55;;;;;;;;;;5094236;28;20016;-47
2021/06/26 02:26:06;;;;;;;7.93;5.68;;;;;;;;;;5093713;28;20060;-49
2021/06/26 02:28:32;;;;;;;7.32;5.43;;;;;;;;;;5092369;28;20043;-48
2021/06/26 02:30:58;;;;;;;7.38;5.70;;;;;;;;;;5093245;28;20044;-48
2021/06/26 02:33:24;;;;;;;7.43;6.13;;;;;;;;;;5093820;28;20364;-48
2021/06/26 02:35:50;;;;;;;7.57;5.90;;;;;;;;;;5084000;28;20043;-48
2021/06/26 02:38:16;;;;;;;6.63;5.88;;;;;;;;;;5093304;28;20039;-49
2021/06/26 02:40:42;;;;;;;8.32;6.45;;;;;;;;;;5093416;28;20481;-48
2021/06/26 02:43:07;;;;;;;9.77;5.80;;;;;;;;;;5079785;28;20032;-49
2021/06/26 02:45:33;;;;;;;7.88;6.95;;;;;;;;;;5091390;28;20020;-48
2021/06/26 02:47:59;;;;;;;8.30;6.90;;;;;;;;;;5093274;28;20024;-48
2021/06/26 02:50:25;;;;;;;8.20;6.25;;;;;;;;;;5087883;28;20426;-47
2021/06/26 02:52:51;;;;;;;8.07;6.38;;;;;;;;;;5089300;28;20043;-49
2021/06/26 02:55:17;;;;;;;9.13;6.47;;;;;;;;;;5093560;28;20035;-48
2021/06/26 02:57:43;;;;;;;9.18;6.53;;;;;;;;;;5090467;28;20741;-48
2021/06/26 03:00:10;;;;;;;11.65;6.53;;;;;;;;;;5091733;28;20027;-49
2021/06/26 03:02:36;;;;;;;7.60;6.22;;;;;;;;;;5078956;28;20019;-47
2021/06/26 03:05:02;;;;;;;10.57;6.63;;;;;;;;;;5084050;28;20499;-48
2021/06/26 03:07:28;;;;;;;8.95;6.85;;;;;;;;;;5072572;28;20028;-49
2021/06/26 03:09:54;;;;;;;9.40;7.03;;;;;;;;;;5073059;28;20036;-48
2021/06/26 03:12:20;;;;;;;8.68;6.90;;;;;;;;;;5089672;28;20043;-48
2021/06/26 03:14:46;;;;;;;8.60;6.03;;;;;;;;;;5086268;28;20521;-48
2021/06/26 03:17:12;;;;;;;10.30;6.78;;;;;;;;;;5087503;28;20380;-47
2021/06/26 03:19:38;;;;;;;8.18;7.28;;;;;;;;;;5083950;28;20016;-49
2021/06/26 03:22:05;;;;;;;8.48;7.15;;;;;;;;;;5092930;28;20406;-49
2021/06/26 03:24:31;;;;;;;13.98;8.02;;;;;;;;;;5093079;28;20028;-48
2021/06/26 03:26:57;;;;;;;9.27;6.88;;;;;;;;;;5090707;28;20043;-47
2021/06/26 03:29:24;;;;;;;9.65;7.25;;;;;;;;;;5093100;28;20073;-48
2021/06/26 03:31:50;;;;;;;9.35;7.45;;;;;;;;;;5091212;28;20112;-48
2021/06/26 03:34:16;;;;;;;9.98;7.43;;;;;;;;;;5092300;28;20043;-48
2021/06/26 03:36:42;;;;;;;9.77;7.30;;;;;;;;;;5090619;28;20028;-48
2021/06/26 03:39:08;;;;;;;8.55;6.97;;;;;;;;;;5092142;28;20024;-48
2021/06/26 03:41:35;;;;;;;9.90;7.07;;;;;;;;;;5092547;28;20044;-48
2021/06/26 03:44:01;;;;;;;8.40;6.15;;;;;;;;;;5092149;28;20031;-48
2021/06/26 03:46:28;;;;;;;8.93;6.80;;;;;;;;;;5089406;28;20035;-47
2021/06/26 03:48:54;;;;;;;9.45;6.25;;;;;;;;;;5087749;28;20391;-48
2021/06/26 03:51:20;;;;;;;9.68;7.18;;;;;;;;;;5080353;28;20119;-48
2021/06/26 03:53:47;;;;;;;9.57;7.10;;;;;;;;;;5090381;28;20039;-50
2021/06/26 03:56:13;;;;;;;10.02;6.55;;;;;;;;;;5092259;28;20085;-47
2021/06/26 03:58:39;;;;;;;10.30;6.88;;;;;;;;;;5086093;28;20031;-48
2021/06/26 04:01:05;;;;;;;8.82;6.60;;;;;;;;;;5086383;28;20038;-50
2021/06/26 04:03:31;;;;;;;10.05;6.72;;;;;;;;;;5091956;28;20027;-48
2021/06/26 04:05:57;;;;;;;14.05;6.93;;;;;;;;;;5084217;28;20063;-48
2021/06/26 04:08:23;;;;;;;8.25;6.43;;;;;;;;;;5091754;28;20032;-48
2021/06/26 04:10:49;;;;;;;11.50;8.27;;;;;;;;;;5092410;28;20035;-48
2021/06/26 04:13:15;;;;;;;9.77;7.63;;;;;;;;;;5086664;28;20040;-48
2021/06/26 04:15:41;;;;;;;10.93;8.25;;;;;;;;;;5070233;28;20479;-49
2021/06/26 04:18:07;;;;;;;9.68;7.10;;;;;;;;;;5088888;28;20070;-48
2021/06/26 04:20:33;;;;;;;10.25;8.15;;;;;;;;;;5091479;28;20546;-48
2021/06/26 04:22:59;;;;;;;9.55;7.35;;;;;;;;;;5092117;28;20028;-47
2021/06/26 04:25:27;;;;;;;10.23;8.23;;;;;;;;;;5086713;28;20039;-48
2021/06/26 04:27:54;;;;;;;9.45;7.35;;;;;;;;;;5089283;28;20434;-48
2021/06/26 04:30:20;;;;;;;9.30;7.43;;;;;;;;;;5091652;28;20059;-49
2021/06/26 04:32:46;;;;;;;8.68;6.97;;;;;;;;;;5091028;28;20379;-49
2021/06/26 04:35:14;;;;;;;9.90;7.60;;;;;;;;;;5089769;28;20024;-48
2021/06/26 04:37:40;;;;;;;9.02;6.68;;;;;;;;;;5087003;28;20444;-48
2021/06/26 04:40:07;;;;;;;9.45;7.55;;;;;;;;;;5082531;28;20459;-49
2021/06/26 04:42:33;;;;;;;9.60;7.50;;;;;;;;;;5091568;28;20024;-48
2021/06/26 04:44:59;;;;;;;8.23;7.15;;;;;;;;;;5088825;28;20104;-48
2021/06/26 04:47:25;;;;;;;9.27;7.50;;;;;;;;;;5090726;28;20038;-51
2021/06/26 04:49:51;;;;;;;10.02;6.80;;;;;;;;;;5091233;28;20375;-48
2021/06/26 04:52:17;;;;;;;10.90;7.70;;;;;;;;;;5086254;28;20029;-49
2021/06/26 04:54:43;;;;;;;11.45;7.10;;;;;;;;;;5090926;28;20032;-48
2021/06/26 04:57:09;;;;;;;8.98;7.05;;;;;;;;;;5090907;28;20086;-48
2021/06/26 04:59:35;;;;;;;10.60;6.85;;;;;;;;;;5079003;28;20043;-48
2021/06/26 05:02:01;;;;;;;8.82;7.03;;;;;;;;;;5089951;28;20150;-48
2021/06/26 05:04:27;;;;;;;7.65;6.40;;;;;;;;;;5090297;28;20040;-47
2021/06/26 05:06:56;;;;;;;9.52;6.45;;;;;;;;;;5095208;28;20032;-48
2021/06/26 05:09:22;;;;;;;8.20;6.55;;;;;;;;;;5094674;28;20039;-47
2021/06/26 05:11:48;;;;;;;8.70;6.47;;;;;;;;;;5094620;28;20028;-49
2021/06/26 05:14:14;;;;;;;7.88;6.40;;;;;;;;;;5086719;28;20052;-48
2021/06/26 05:16:42;;;;;;;9.43;6.82;;;;;;;;;;5084930;28;20059;-48
2021/06/26 05:19:08;;;;;;;10.35;6.88;;;;;;;;;;5081856;28;20027;-48
2021/06/26 05:21:34;;;;;;;9.73;6.60;;;;;;;;;;5092943;28;20035;-50
2021/06/26 05:24:00;;;;;;;8.20;6.55;;;;;;;;;;5087840;28;20032;-48
2021/06/26 05:26:26;;;;;;;8.05;6.40;;;;;;;;;;5093221;28;20391;-48
2021/06/26 05:28:52;;;;;;;8.48;6.13;;;;;;;;;;5087062;28;20028;-48
2021/06/26 05:31:19;;;;;;;8.07;6.50;;;;;;;;;;5094303;28;20036;-48
2021/06/26 05:33:46;;;;;;;8.35;6.78;;;;;;;;;;5094464;28;20020;-49
2021/06/26 05:36:12;;;;;;;9.57;6.50;;;;;;;;;;5094684;28;20421;-48
2021/06/26 05:38:38;;;;;;;8.18;5.88;;;;;;;;;;5083732;28;20028;-48
2021/06/26 05:41:04;;;;;;;6.75;5.70;;;;;;;;;;5091623;28;20431;-48
2021/06/26 05:43:30;;;;;;;6.75;5.63;;;;;;;;;;5088917;28;20024;-48
2021/06/26 05:45:56;;;;;;;8.65;7.00;;;;;;;;;;5086271;28;20024;-49
2021/06/26 05:48:22;;;;;;;8.75;6.63;;;;;;;;;;5093943;28;20062;-48
2021/06/26 05:50:48;;;;;;;9.07;6.95;;;;;;;;;;5090128;28;20035;-48
2021/06/26 05:53:14;;;;;;;8.70;5.88;;;;;;;;;;5084382;28;21429;-48
2021/06/26 05:55:40;;;;;;;8.80;6.13;;;;;;;;;;5085199;28;20024;-49
2021/06/26 05:58:06;;;;;;;6.65;5.45;;;;;;;;;;5076782;28;20036;-50
2021/06/26 06:00:35;;;;;;;6.95;5.60;;;;;;;;;;5092973;28;20069;-48
2021/06/26 06:03:02;;;;;;;9.90;6.13;;;;;;;;;;5093870;28;20032;-48
2021/06/26 06:05:29;;;;;;;8.43;6.38;;;;;;;;;;5084108;28;20054;-49
2021/06/26 06:07:55;;;;;;;7.88;5.95;;;;;;;;;;5093963;28;20028;-48
2021/06/26 06:10:21;;;;;;;9.55;6.25;;;;;;;;;;5091025;28;20112;-48
2021/06/26 06:12:47;;;;;;;10.23;7.03;;;;;;;;;;5084277;28;20028;-49
2021/06/26 06:15:13;;;;;;;6.93;5.43;;;;;;;;;;5075632;28;20081;-48
2021/06/26 06:17:40;;;;;;;9.30;6.13;;;;;;;;;;5094240;28;20028;-48
2021/06/26 06:20:07;;;;;;;9.30;5.95;;;;;;;;;;5090498;28;20157;-49
2021/06/26 06:22:33;;;;;;;10.23;6.20;;;;;;;;;;5091107;28;20366;-49
2021/06/26 06:24:59;;;;;;;9.70;6.53;;;;;;;;;;5093183;28;20020;-48
2021/06/26 06:27:26;;;;;;;11.30;6.53;;;;;;;;;;5060283;28;20235;-49
2021/06/26 06:29:52;;;;;;;9.27;6.32;;;;;;;;;;5090573;28;20119;-48
2021/06/26 06:32:18;;;;;;;7.18;4.93;;;;;;;;;;5090642;28;20115;-48
2021/06/26 06:34:44;;;;;;;7.32;5.35;;;;;;;;;;5092783;28;20020;-49
2021/06/26 06:37:10;;;;;;;9.52;5.97;;;;;;;;;;5092995;28;20028;-50
2021/06/26 06:39:35;;;;;;;7.85;5.45;;;;;;;;;;5082959;28;20483;-49
2021/06/26 06:42:02;;;;;;;9.75;5.50;;;;;;;;;;5086722;28;20028;-48
2021/06/26 06:44:28;;;;;;;10.13;5.28;;;;;;;;;;5082934;28;20048;-48
2021/06/26 06:46:54;;;;;;;10.50;5.63;;;;;;;;;;5088727;28;20052;-48
2021/06/26 06:49:20;;;;;;;6.75;4.80;;;;;;;;;;5085518;28;20083;-50
2021/06/26 06:51:46;;;;;;;9.38;5.13;;;;;;;;;;5084010;28;20040;-48
2021/06/26 06:54:11;;;;;;;6.35;4.20;;;;;;;;;;5092347;28;20069;-49
2021/06/26 06:56:37;;;;;;;10.23;4.70;;;;;;;;;;5090275;28;20463;-49
2021/06/26 06:59:03;;;;;;;9.10;4.40;;;;;;;;;;5092895;28;20050;-48
2021/06/26 07:01:30;;;;;;;8.30;4.65;;;;;;;;;;5085793;28;20024;-49
2021/06/26 07:03:56;;;;;;;6.30;3.97;;;;;;;;;;5080215;28;20129;-48
2021/06/26 07:06:22;;;;;;;5.53;4.00;;;;;;;;;;5087696;28;20042;-49
2021/06/26 07:08:48;;;;;;;5.68;3.15;;;;;;;;;;5078419;28;20024;-50
2021/06/26 07:11:14;;;;;;;6.22;3.60;;;;;;;;;;5086430;28;20032;-49
2021/06/26 07:13:40;;;;;;;5.53;3.75;;;;;;;;;;5092298;28;20032;-49
2021/06/26 07:16:06;;;;;;;4.30;3.05;;;;;;;;;;5088539;28;20043;-48
2021/06/26 07:18:32;;;;;;;4.47;3.15;;;;;;;;;;5081039;28;20035;-48
2021/06/26 07:20:58;;;;;;;3.85;2.97;;;;;;;;;;5069611;28;20057;-51
2021/06/26 07:23:23;;;;;;;4.53;3.28;;;;;;;;;;5085271;28;20023;-48
2021/06/26 07:25:49;;;;;;;5.32;3.72;;;;;;;;;;5087053;28;20028;-51
2021/06/26 07:28:15;;;;;;;5.53;3.58;;;;;;;;;;5080496;28;20035;-52
2021/06/26 07:30:41;;;;;;;5.28;3.03;;;;;;;;;;5082452;28;20047;-48
2021/06/26 07:33:07;;;;;;;6.65;4.32;;;;;;;;;;5083967;28;20115;-48
2021/06/26 07:35:33;;;;;;;5.07;3.33;;;;;;;;;;5090227;28;20470;-49
2021/06/26 07:37:59;;;;;;;4.20;3.20;;;;;;;;;;5085555;28;20082;-49
2021/06/26 07:40:27;;;;;;;5.30;3.95;;;;;;;;;;5085994;28;20019;-49
2021/06/26 07:42:53;;;;;;;4.65;3.35;;;;;;;;;;5084830;28;20039;-50
2021/06/26 07:45:19;;;;;;;6.85;3.50;;;;;;;;;;5085637;28;20099;-49
2021/06/26 07:47:45;;;;;;;5.45;3.95;;;;;;;;;;5090860;28;20471;-49
2021/06/26 07:50:11;;;;;;;5.13;3.30;;;;;;;;;;5089640;28;20032;-49
2021/06/26 07:52:38;;;;;;;5.63;2.70;;;;;;;;;;5091129;28;20020;-49
2021/06/26 07:55:04;;;;;;;4.28;3.20;;;;;;;;;;5080331;28;20380;-49
2021/06/26 07:57:30;;;;;;;3.45;3.10;;;;;;;;;;5076357;28;20040;-49
2021/06/26 07:59:56;;;;;;;3.85;3.20;;;;;;;;;;5088423;28;20059;-48
2021/06/26 08:02:22;;;;;;;4.93;3.17;;;;;;;;;;5091439;28;20035;-49
2021/06/26 08:04:48;;;;;;;4.22;3.35;;;;;;;;;;5059537;28;20111;-49
2021/06/26 08:07:14;;;;;;;7.30;3.55;;;;;;;;;;5088179;28;20333;-48
2021/06/26 08:09:40;;;;;;;5.78;3.53;;;;;;;;;;5083307;28;20115;-49
2021/06/26 08:12:07;;;;;;;4.30;2.75;;;;;;;;;;5089292;28;20589;-49
2021/06/26 08:14:33;;;;;;;6.03;3.30;;;;;;;;;;5074150;28;20021;-49
2021/06/26 08:16:59;;;;;;;3.75;2.72;;;;;;;;;;5080252;28;20041;-51
2021/06/26 08:19:25;;;;;;;5.20;3.03;;;;;;;;;;5082935;28;20383;-50
2021/06/26 08:21:51;;;;;;;4.65;3.50;;;;;;;;;;5084566;28;20069;-49
2021/06/26 08:24:17;;;;;;;5.65;3.05;;;;;;;;;;5074731;28;20037;-48
2021/06/26 08:26:43;;;;;;;5.43;3.33;;;;;;;;;;5083863;28;20028;-49
2021/06/26 08:29:08;;;;;;;3.30;2.83;;;;;;;;;;5083295;28;20488;-48
2021/06/26 08:31:34;;;;;;;6.70;3.28;;;;;;;;;;5087890;28;20043;-49
2021/06/26 08:34:00;;;;;;;3.13;2.38;;;;;;;;;;5091007;28;20020;-50
2021/06/26 08:36:26;;;;;;;5.45;4.00;;;;;;;;;;5084556;28;20028;-51
2021/06/26 08:38:52;;;;;;;4.55;3.65;;;;;;;;;;5089787;28;20032;-50
2021/06/26 08:41:19;;;;;;;9.90;3.53;;;;;;;;;;5094947;28;20027;-49
2021/06/26 08:43:45;;;;;;;5.28;3.10;;;;;;;;;;5085081;28;20074;-48
2021/06/26 08:46:12;;;;;;;3.47;2.67;;;;;;;;;;5093780;28;20037;-52
2021/06/26 08:48:38;;;;;;;5.15;3.85;;;;;;;;;;5072926;28;20039;-53
2021/06/26 08:51:05;;;;;;;6.78;3.20;;;;;;;;;;5089624;28;20055;-51
2021/06/26 08:53:31;;;;;;;4.93;3.60;;;;;;;;;;5094913;28;20047;-49
2021/06/26 08:55:57;;;;;;;4.50;3.13;;;;;;;;;;5095968;28;20383;-49
2021/06/26 08:58:23;;;;;;;5.32;3.67;;;;;;;;;;5092209;28;20123;-49
2021/06/26 09:00:50;;;;;;;6.75;3.67;;;;;;;;;;5090143;28;20016;-51
2021/06/26 09:03:17;;;;;;;3.33;2.80;;;;;;;;;;5096584;28;20356;-51
2021/06/26 09:05:44;;;;;;;7.72;3.00;;;;;;;;;;5096083;28;20418;-51
2021/06/26 09:08:12;;;;;;;3.30;2.72;;;;;;;;;;5088840;28;20106;-49
2021/06/26 09:10:38;;;;;;;2.95;2.28;;;;;;;;;;5092706;28;20070;-49
2021/06/26 09:13:16;;;;;;;4.07;2.50;;;;;;;;;;5098488;28;20379;-49
2021/06/26 09:15:42;;;;;;;3.42;2.55;;;;;;;;;;5097848;28;20036;-49
2021/06/26 09:18:15;;;;;;;3.47;2.55;;;;;;;;;;5098136;28;20032;-49
2021/06/26 09:20:44;;;;;;;4.10;2.45;;;;;;;;;;5094212;28;20549;-49
2021/06/26 09:23:21;;;;;;;3.67;2.45;;;;;;;;;;5096050;28;20683;-54
2021/06/26 09:25:47;;;;;;;3.22;2.58;;;;;;;;;;5085968;28;20367;-52
2021/06/26 09:28:22;;;;;;;6.68;3.20;;;;;;;;;;5087631;28;20028;-50
2021/06/26 09:30:48;;;;;;;5.03;2.63;;;;;;;;;;5095187;28;20536;-50
2021/06/26 09:33:19;;;;;;;2.92;2.40;;;;;;;;;;5093776;28;20036;-49
2021/06/26 09:35:46;;;;;;;5.18;2.85;;;;;;;;;;5090745;28;20434;-49
2021/06/26 09:38:12;;;;;;;4.55;2.80;;;;;;;;;;5085324;28;20083;-52
2021/06/26 09:40:42;;;;;;;3.90;2.42;;;;;;;;;;5097985;28;20543;-49
2021/06/26 09:43:08;;;;;;;6.03;3.00;;;;;;;;;;5097997;28;20028;-49
2021/06/26 09:45:35;;;;;;;3.40;2.47;;;;;;;;;;5070953;28;20074;-50
2021/06/26 09:48:07;;;;;;;3.42;2.30;;;;;;;;;;5091057;28;20511;-49
2021/06/26 09:50:35;;;;;;;3.42;2.28;;;;;;;;;;5091513;28;20077;-49
2021/06/26 09:53:05;;;;;;;3.05;2.25;;;;;;;;;;5089385;28;20444;-49
2021/06/26 09:55:32;;;;;;;3.97;2.33;;;;;;;;;;5077689;28;20086;-48
2021/06/26 09:58:00;;;;;;;3.15;2.10;;;;;;;;;;5080249;28;20032;-50
2021/06/26 10:00:27;;;;;;;3.15;2.13;;;;;;;;;;5085896;28;20036;-48
2021/06/26 10:02:54;;;;;;;3.20;2.05;;;;;;;;;;5094776;28;20467;-49
2021/06/26 10:05:20;;;;;;;2.63;2.30;;;;;;;;;;5093532;28;20066;-49
2021/06/26 10:07:47;;;;;;;4.95;2.10;;;;;;;;;;5082300;28;20032;-48
2021/06/26 10:10:14;;;;;;;2.90;2.45;;;;;;;;;;5094011;28;20063;-50
2021/06/26 10:12:40;;;;;;;2.60;2.00;;;;;;;;;;5093362;28;20040;-48
2021/06/26 10:15:08;;;;;;;3.63;2.05;;;;;;;;;;5086024;28;20109;-54
2021/06/26 10:17:34;;;;;;;2.92;1.70;;;;;;;;;;5081485;28;20107;-49
2021/06/26 10:20:01;;;;;;;3.58;2.05;;;;;;;;;;5091230;28;20025;-49
2021/06/26 10:22:27;;;;;;;3.95;1.83;;;;;;;;;;5094360;28;20103;-49
2021/06/26 10:24:54;;;;;;;3.97;1.80;;;;;;;;;;5093904;28;20365;-53
2021/06/26 10:27:20;;;;;;;1.42;1.15;;;;;;;;;;5092388;28;20073;-49
2021/06/26 10:29:47;;;;;;;3.08;1.58;;;;;;;;;;5091173;28;20036;-49
2021/06/26 10:32:14;;;;;;;2.58;1.70;;;;;;;;;;5094186;28;20036;-49
2021/06/26 10:34:44;;;;;;;2.88;1.58;;;;;;;;;;5093480;28;20028;-49
2021/06/26 10:37:21;;;;;;;1.90;1.40;;;;;;;;;;5093433;28;20051;-50
2021/06/26 10:39:47;;;;;;;1.85;1.33;;;;;;;;;;5075502;28;20364;-49
2021/06/26 10:42:14;;;;;;;2.40;1.40;;;;;;;;;;5094065;28;20837;-48
2021/06/26 10:44:53;;;;;;;3.70;1.52;;;;;;;;;;5090301;28;20348;-49
2021/06/26 10:47:33;;;;;;;3.15;1.38;;;;;;;;;;5078764;28;20043;-50
2021/06/26 10:50:17;;;;;;;1.75;1.45;;;;;;;;;;5090844;28;20422;-51
2021/06/26 10:52:49;;;;;;;2.45;1.40;;;;;;;;;;5091402;28;20531;-48
2021/06/26 10:55:28;;;;;;;1.40;1.10;;;;;;;;;;5092397;28;20036;-49
2021/06/26 10:57:54;;;;;;;5.22;1.50;;;;;;;;;;5083654;28;20032;-50
2021/06/26 11:00:39;;;;;;;3.70;1.30;;;;;;;;;;5091904;28;20039;-49
2021/06/26 11:03:06;;;;;;;1.88;0.88;;;;;;;;;;5087161;28;20044;-51
2021/06/26 11:05:33;;;;;;;1.88;1.17;;;;;;;;;;5085490;28;20147;-48
2021/06/26 11:07:59;;;;;;;1.65;1.10;;;;;;;;;;5076450;28;20051;-50
2021/06/26 11:10:26;;;;;;;1.77;1.02;;;;;;;;;;5085731;28;20456;-54
2021/06/26 11:12:52;;;;;;;3.17;1.20;;;;;;;;;;5090124;28;20484;-51
2021/06/26 11:15:26;;;;;;;1.75;1.20;;;;;;;;;;5091848;28;20036;-50
2021/06/26 11:17:52;;;;;;;1.50;1.02;;;;;;;;;;5085736;28;20031;-52
2021/06/26 11:20:18;;;;;;;1.20;1.00;;;;;;;;;;5089564;28;20028;-49
2021/06/26 11:22:51;;;;;;;1.38;1.25;;;;;;;;;;5091576;28;20023;-52
2021/06/26 11:25:17;;;;;;;1.55;1.15;;;;;;;;;;5081594;28;20024;-49
2021/06/26 11:27:43;;;;;;;1.48;1.02;;;;;;;;;;5092363;28;20799;-52
2021/06/26 11:30:10;;;;;;;1.05;0.77;;;;;;;;;;5085977;28;20048;-50
2021/06/26 11:32:36;;;;;;;1.95;1.38;;;;;;;;;;5085469;28;20059;-49
2021/06/26 11:35:11;;;;;;;1.50;1.00;;;;;;;;;;5080520;28;20111;-50
2021/06/26 11:37:39;;;;;;;2.15;1.30;;;;;;;;;;5081357;28;20078;-51
2021/06/26 11:40:14;;;;;;;1.50;0.90;;;;;;;;;;5079668;28;20044;-51
2021/06/26 11:43:02;;;;;;;1.13;1.00;;;;;;;;;;5092436;28;20047;-51
2021/06/26 11:45:35;;;;;;;1.55;1.00;;;;;;;;;;5077321;28;20033;-50
2021/06/26 11:48:01;;;;;;;;;;;;;;;;;;5085335;28;20074;-50
2021/06/26 11:50:27;;;;;;;1.80;1.30;;;;;;;;;;5080559;28;20352;-50
2021/06/26 11:53:02;;;;;;;1.35;0.80;;;;;;;;;;5086420;28;20059;-50
2021/06/26 11:55:28;;;;;;;4.82;1.23;;;;;;;;;;5089281;28;20032;-53
2021/06/26 11:57:54;;;;;;;1.83;1.10;;;;;;;;;;5082270;28;20036;-49
2021/06/26 12:00:20;;;;;;;0.90;0.80;;;;;;;;;;5082094;28;20020;-55
2021/06/26 12:02:46;;;;;;;1.65;1.02;;;;;;;;;;5088764;28;20103;-53
2021/06/26 12:05:20;;;;;;;2.17;0.98;;;;;;;;;;5087146;28;20028;-49
2021/06/26 12:07:46;;;;;;;1.80;1.20;;;;;;;;;;5090440;28;20093;-50
2021/06/26 12:10:12;;;;;;;1.58;0.90;;;;;;;;;;5080467;28;20016;-49
2021/06/26 12:12:39;;;;;;;1.00;0.80;;;;;;;;;;5080263;28;20116;-52
2021/06/26 12:15:11;;;;;;;1.27;0.80;;;;;;;;;;5080473;28;20028;-49
2021/06/26 12:17:37;;;;;;;1.08;0.98;;;;;;;;;;5080468;28;20506;-52
2021/06/26 12:20:13;;;;;;;1.98;0.93;;;;;;;;;;5091766;28;20028;-52
2021/06/26 12:22:39;;;;;;;2.63;1.00;;;;;;;;;;5087013;28;20755;-51
2021/06/26 12:25:08;;;;;;;8.43;1.40;;;;;;;;;;5084060;28;20102;-53
2021/06/26 12:27:34;;;;;;;1.00;0.90;;;;;;;;;;5077084;28;20031;-54
2021/06/26 12:30:01;;;;;;;4.47;1.55;;;;;;;;;;5086502;28;20021;-52
2021/06/26 12:32:29;;;;;;;4.20;1.27;;;;;;;;;;5072937;28;20017;-51
2021/06/26 12:34:55;;;;;;;2.75;1.67;;;;;;;;;;5084185;28;20116;-49
2021/06/26 12:37:31;;;;;;;1.10;0.80;;;;;;;;;;5085984;28;20465;-49
2021/06/26 12:40:18;;;;;;;1.63;1.20;;;;;;;;;;5087589;28;20036;-49
2021/06/26 12:43:05;;;;;;;1.23;0.70;;;;;;;;;;5081057;28;20031;-51
2021/06/26 12:45:51;;;;;;;7.43;0.98;;;;;;;;;;5090105;28;20032;-49
2021/06/26 12:48:26;;;;;;;2.03;1.35;;;;;;;;;;5077894;28;20128;-49
2021/06/26 12:51:14;;;;;;;1.75;0.95;;;;;;;;;;5079527;28;20062;-51
2021/06/26 12:54:00;;;;;;;3.22;1.33;;;;;;;;;;5074878;28;20028;-50
2021/06/26 12:56:27;;;;;;;1.48;0.93;;;;;;;;;;5091111;28;20174;-50
2021/06/26 12:58:55;;;;;;;4.78;1.05;;;;;;;;;;5085077;28;20024;-52
2021/06/26 13:01:21;;;;;;;2.10;0.90;;;;;;;;;;5081315;28;20475;-52
2021/06/26 13:03:56;;;;;;;1.27;0.98;;;;;;;;;;5078405;28;20118;-50
2021/06/26 13:06:23;;;;;;;3.38;1.30;;;;;;;;;;5080201;28;20031;-53
2021/06/26 13:08:51;;;;;;;2.65;1.42;;;;;;;;;;5089398;28;20421;-52
2021/06/26 13:11:27;;;;;;;2.30;1.50;;;;;;;;;;5087195;28;20036;-50
2021/06/26 13:13:53;;;;;;;1.17;0.80;;;;;;;;;;5081256;28;20028;-49
2021/06/26 13:16:19;;;;;;;1.08;0.80;;;;;;;;;;5085240;28;20519;-48
2021/06/26 13:18:45;;;;;;;4.68;0.98;;;;;;;;;;5077608;28;20628;-50
2021/06/26 13:21:12;;;;;;;1.20;1.00;;;;;;;;;;5091011;28;20058;-51
2021/06/26 13:23:38;;;;;;;0.85;0.80;;;;;;;;;;5091341;28;20036;-49
2021/06/26 13:26:04;;;;;;;0.80;0.80;;;;;;;;;;5092829;28;20109;-49
2021/06/26 13:28:30;;;;;;;2.95;0.90;;;;;;;;;;5092968;28;20036;-50
2021/06/26 13:30:56;;;;;;;2.97;0.90;;;;;;;;;;5076562;28;20123;-51
2021/06/26 13:33:22;;;;;;;0.95;0.68;;;;;;;;;;5093384;28;20047;-51
2021/06/26 13:35:48;;;;;;;1.83;0.93;;;;;;;;;;5094794;28;20059;-49
2021/06/26 13:38:14;;;;;;;1.88;1.08;;;;;;;;;;5087120;28;20031;-49
2021/06/26 13:40:40;;;;;;;2.35;0.77;;;;;;;;;;5094350;28;20024;-50
2021/06/26 13:43:06;;;;;;;2.33;0.90;;;;;;;;;;5094327;28;20470;-50
2021/06/26 13:45:32;;;;;;;1.42;0.98;;;;;;;;;;5086129;28;20023;-51
2021/06/26 13:47:58;;;;;;;1.48;0.80;;;;;;;;;;5091026;28;20027;-51
2021/06/26 13:50:24;;;;;;;1.45;1.10;;;;;;;;;;5088214;28;20578;-51
2021/06/26 13:52:50;;;;;;;3.30;1.27;;;;;;;;;;5073596;28;20071;-52
2021/06/26 13:55:16;;;;;;;1.50;0.88;;;;;;;;;;5083284;28;20440;-49
2021/06/26 13:57:42;;;;;;;4.93;1.20;;;;;;;;;;5084716;28;20035;-50
2021/06/26 14:00:08;;;;;;;6.63;1.65;;;;;;;;;;5092276;28;20020;-53
2021/06/26 14:02:34;;;;;;;1.90;1.50;;;;;;;;;;5093936;28;20024;-49
2021/06/26 14:05:00;;;;;;;2.15;1.70;;;;;;;;;;5088831;28;20039;-48
2021/06/26 14:07:26;;;;;;;1.95;1.30;;;;;;;;;;5073987;28;20569;-48
2021/06/26 14:09:52;;;;;;;2.05;1.45;;;;;;;;;;5091407;28;20428;-48
2021/06/26 14:12:18;;;;;;;1.77;1.50;;;;;;;;;;5094187;28;20031;-51
2021/06/26 14:14:44;;;;;;;2.80;1.23;;;;;;;;;;5079894;28;20024;-51
2021/06/26 14:17:11;;;;;;;3.60;1.60;;;;;;;;;;5088283;28;20036;-54
2021/06/26 14:19:39;;;;;;;2.25;1.63;;;;;;;;;;5094139;28;20090;-55
2021/06/26 14:22:05;;;;;;;3.72;1.40;;;;;;;;;;5094232;28;20412;-51
2021/06/26 14:24:31;;;;;;;1.58;1.48;;;;;;;;;;5074863;28;20031;-49
2021/06/26 14:26:57;;;;;;;7.38;1.88;;;;;;;;;;5093542;28;20468;-54
2021/06/26 14:29:23;;;;;;;2.45;1.60;;;;;;;;;;5071556;28;20048;-49
2021/06/26 14:31:49;;;;;;;2.65;1.80;;;;;;;;;;5078039;28;20082;-53
2021/06/26 14:34:15;;;;;;;2.00;1.80;;;;;;;;;;5088712;28;20031;-52
2021/06/26 14:36:41;;;;;;;4.70;2.28;;;;;;;;;;5093231;28;20031;-48
2021/06/26 14:39:07;;;;;;;6.55;1.80;;;;;;;;;;5092791;28;20528;-51
2021/06/26 14:41:33;;;;;;;5.75;1.92;;;;;;;;;;5090830;28;20384;-53
2021/06/26 14:43:59;;;;;;;4.20;1.73;;;;;;;;;;5089227;28;20107;-48